Time;durP1;ratioP1;P1;durP2;ratioP2;P2;SDS_P1;SDS_P2;PMS_P1;PMS_P2;Temp;Humidity;BMP_temperature;BMP_pressure;BME280_temperature;BME280_humidity;BME280_pressure;Samples;Min_cycle;Max_cycle;Signal;HPM_P1;HPM_P2
2022/04/20 00:00:43;;;;;;;3.13;1.50;;;;;;;12.16;52.35;99615.00;5091772;28;20429;-60
2022/04/20 00:03:09;;;;;;;2.47;1.73;;;;;;;12.13;52.56;99622.25;5077229;28;20032;-60
2022/04/20 00:05:35;;;;;;;2.97;1.52;;;;;;;12.10;52.83;99617.06;5071774;28;20455;-60
2022/04/20 00:08:01;;;;;;;3.63;1.83;;;;;;;12.06;52.89;99616.34;5071877;28;20036;-60
2022/04/20 00:10:28;;;;;;;3.25;1.73;;;;;;;12.02;53.15;99620.09;5083401;28;20024;-60
2022/04/20 00:12:53;;;;;;;5.30;1.95;;;;;;;11.95;52.69;99615.97;5091362;28;20016;-60
2022/04/20 00:15:18;;;;;;;3.30;1.60;;;;;;;11.94;52.74;99624.91;5091671;28;20024;-60
2022/04/20 00:17:44;;;;;;;2.60;1.92;;;;;;;11.85;53.27;99618.19;5091075;28;20525;-60
2022/04/20 00:20:09;;;;;;;3.22;1.77;;;;;;;11.82;52.62;99622.75;5090139;28;20032;-60
2022/04/20 00:22:35;;;;;;;4.80;1.90;;;;;;;11.84;51.96;99613.75;5090971;28;20495;-60
2022/04/20 00:25:00;;;;;;;3.30;2.10;;;;;;;11.78;52.24;99610.50;5080709;28;20028;-60
2022/04/20 00:27:26;;;;;;;7.97;2.13;;;;;;;11.79;52.17;99617.56;5074142;28;20168;-60
2022/04/20 00:29:51;;;;;;;2.45;1.67;;;;;;;11.67;53.01;99607.44;5075213;28;20423;-60
2022/04/20 00:32:17;;;;;;;3.03;1.90;;;;;;;11.70;51.26;99620.63;5075150;28;20109;-60
2022/04/20 00:34:42;;;;;;;4.07;2.22;;;;;;;11.57;51.85;99609.63;5086561;28;20379;-60
2022/04/20 00:37:08;;;;;;;2.58;1.40;;;;;;;11.51;53.11;99617.00;5095323;28;20034;-60
2022/04/20 00:39:36;;;;;;;2.78;1.88;;;;;;;11.47;52.13;99632.25;5094953;28;20024;-60
2022/04/20 00:42:01;;;;;;;7.95;1.98;;;;;;;11.48;52.00;99633.13;5095334;28;20028;-60
2022/04/20 00:44:28;;;;;;;3.17;1.75;;;;;;;11.49;51.46;99627.72;5095096;28;20515;-60
2022/04/20 00:46:55;;;;;;;5.53;2.00;;;;;;;11.39;51.75;99631.69;5095308;28;20020;-60
2022/04/20 00:49:22;;;;;;;3.55;2.08;;;;;;;11.42;51.04;99628.03;5074808;28;20086;-60
2022/04/20 00:51:52;;;;;;;4.05;1.92;;;;;;;11.41;50.75;99631.63;5074968;28;20103;-60
2022/04/20 00:54:18;;;;;;;4.72;1.98;;;;;;;11.40;51.19;99630.75;5074251;28;20020;-60
2022/04/20 00:56:43;;;;;;;6.10;1.92;;;;;;;11.38;52.35;99623.78;5073370;28;20028;-60
2022/04/20 00:59:09;;;;;;;3.75;2.03;;;;;;;11.31;52.50;99630.28;5074271;28;20111;-60
2022/04/20 01:01:34;;;;;;;7.25;1.95;;;;;;;11.24;51.31;99626.13;5077323;28;20081;-60
2022/04/20 01:04:00;;;;;;;4.72;2.30;;;;;;;11.23;52.58;99621.75;5074392;28;20060;-60
2022/04/20 01:06:25;;;;;;;3.42;1.67;;;;;;;11.25;52.20;99614.56;5074665;28;20083;-60
2022/04/20 01:08:50;;;;;;;4.20;1.70;;;;;;;11.28;51.15;99625.09;5074414;28;20028;-60
2022/04/20 01:11:16;;;;;;;2.08;1.60;;;;;;;11.24;50.67;99639.44;5074292;28;20025;-60
2022/04/20 01:13:41;;;;;;;3.67;1.77;;;;;;;11.23;50.96;99630.63;5074518;28;20021;-60
2022/04/20 01:16:08;;;;;;;3.30;1.85;;;;;;;11.15;49.50;99635.34;5074540;28;20533;-60
2022/04/20 01:18:40;;;;;;;3.42;2.03;;;;;;;11.22;49.81;99631.53;5088361;28;20032;-60
2022/04/20 01:21:06;;;;;;;2.25;1.67;;;;;;;11.23;50.71;99629.75;5094370;28;20054;-60
2022/04/20 01:23:31;;;;;;;3.55;1.77;;;;;;;11.21;51.47;99632.47;5094505;28;20028;-60
2022/04/20 01:25:56;;;;;;;3.92;1.65;;;;;;;11.14;50.66;99633.63;5093637;28;20036;-60
2022/04/20 01:28:22;;;;;;;2.90;1.60;;;;;;;11.08;50.88;99639.22;5092740;28;20438;-60
2022/04/20 01:30:47;;;;;;;2.88;1.40;;;;;;;11.06;50.83;99637.53;5092780;28;20028;-60
2022/04/20 01:33:13;;;;;;;3.40;1.67;;;;;;;10.98;53.09;99637.84;5092780;28;20099;-60
2022/04/20 01:35:38;;;;;;;3.78;1.77;;;;;;;10.94;52.06;99636.22;5092951;28;20070;-60
2022/04/20 01:38:04;;;;;;;3.78;1.60;;;;;;;10.90;53.37;99628.44;5090800;28;20423;-60
2022/04/20 01:40:29;;;;;;;4.25;2.00;;;;;;;10.83;52.75;99622.50;5091181;28;20020;-60
2022/04/20 01:42:55;;;;;;;5.05;1.90;;;;;;;10.75;52.60;99632.59;5093747;28;20458;-60
2022/04/20 01:45:20;;;;;;;3.53;1.80;;;;;;;10.67;53.00;99625.81;5094061;28;20110;-60
2022/04/20 01:47:46;;;;;;;4.07;1.65;;;;;;;10.65;53.12;99625.88;5093945;28;20024;-60
2022/04/20 01:50:11;;;;;;;4.93;2.85;;;;;;;10.65;53.46;99628.56;5093826;28;20168;-60
2022/04/20 01:52:36;;;;;;;3.33;2.00;;;;;;;10.64;52.41;99627.66;5094049;28;20035;-60
2022/04/20 01:55:02;;;;;;;2.63;1.63;;;;;;;10.61;53.04;99627.78;5093461;28;20028;-60
2022/04/20 01:57:28;;;;;;;2.88;2.17;;;;;;;10.52;53.29;99622.84;5093968;28;20028;-60
2022/04/20 01:59:53;;;;;;;3.78;1.77;;;;;;;10.51;54.32;99626.41;5093793;28;20107;-60
2022/04/20 02:05:04;;;;;;;3.13;2.00;;;;;;;10.36;53.11;99621.69;5093694;28;20066;-60
2022/04/20 02:07:30;;;;;;;5.63;2.00;;;;;;;10.33;54.33;99621.81;5091808;28;20028;-60
2022/04/20 02:09:55;;;;;;;1.88;1.55;;;;;;;10.27;54.88;99622.03;5075162;28;20028;-60
2022/04/20 02:12:21;;;;;;;4.82;1.63;;;;;;;10.29;52.47;99614.88;5073647;28;20131;-60
2022/04/20 02:14:47;;;;;;;5.20;1.83;;;;;;;10.24;54.30;99619.50;5075693;28;20019;-60
2022/04/20 02:17:12;;;;;;;6.20;2.08;;;;;;;10.24;53.63;99616.84;5080400;28;20029;-60
2022/04/20 02:19:38;;;;;;;1.88;1.65;;;;;;;10.18;54.72;99619.72;5072895;28;20024;-60
2022/04/20 02:22:04;;;;;;;3.53;1.90;;;;;;;10.15;53.27;99616.31;5073130;28;20067;-60
2022/04/20 02:24:30;;;;;;;5.20;2.35;;;;;;;10.13;54.76;99619.03;5075626;28;20065;-60
2022/04/20 02:26:55;;;;;;;5.03;1.92;;;;;;;10.14;54.02;99626.09;5073034;28;20426;-60
2022/04/20 02:29:21;;;;;;;3.88;2.33;;;;;;;10.16;54.69;99620.72;5074346;28;20031;-60
2022/04/20 02:31:47;;;;;;;2.63;1.60;;;;;;;10.13;54.97;99629.66;5093127;28;20110;-60
2022/04/20 02:34:12;;;;;;;3.05;1.80;;;;;;;10.10;54.37;99619.13;5092916;28;20021;-60
2022/04/20 02:36:38;;;;;;;2.88;1.60;;;;;;;10.09;54.90;99625.38;5093169;28;20024;-60
2022/04/20 02:39:04;;;;;;;4.25;2.65;;;;;;;10.03;55.31;99622.06;5092810;28;20465;-60
2022/04/20 02:41:31;;;;;;;2.58;1.83;;;;;;;10.00;55.74;99623.03;5093320;28;20031;-60
2022/04/20 02:43:56;;;;;;;3.60;1.80;;;;;;;9.93;56.35;99616.22;5092761;28;20039;-60
2022/04/20 02:46:23;;;;;;;5.00;2.08;;;;;;;9.88;56.71;99615.53;5092837;28;20361;-60
2022/04/20 02:48:50;;;;;;;3.53;1.73;;;;;;;9.80;57.15;99614.91;5091947;28;20024;-60
2022/04/20 02:51:15;;;;;;;3.38;2.08;;;;;;;9.77;57.37;99617.66;5072403;28;20048;-60
2022/04/20 02:53:41;;;;;;;4.20;1.92;;;;;;;9.71;57.25;99615.25;5071069;28;20064;-60
2022/04/20 02:56:07;;;;;;;2.47;1.73;;;;;;;9.71;57.43;99611.72;5073968;28;20024;-60
2022/04/20 02:58:32;;;;;;;2.85;1.52;;;;;;;9.72;56.97;99616.13;5072400;28;20108;-60
2022/04/20 03:00:58;;;;;;;6.90;1.70;;;;;;;9.65;56.49;99631.41;5072253;28;20035;-59
2022/04/20 03:03:24;;;;;;;3.33;1.80;;;;;;;9.71;55.65;99636.50;5072491;28;20166;-59
2022/04/20 03:05:51;;;;;;;6.45;2.00;;;;;;;9.72;57.00;99637.38;5071650;28;20024;-59
2022/04/20 03:08:17;;;;;;;3.03;1.67;;;;;;;9.65;57.32;99614.59;5072292;28;20028;-59
2022/04/20 03:10:43;;;;;;;4.65;1.98;;;;;;;9.67;57.81;99640.16;5072230;28;20106;-60
2022/04/20 03:13:08;;;;;;;4.10;1.95;;;;;;;9.61;57.32;99645.69;5072250;28;20028;-60
2022/04/20 03:15:34;;;;;;;6.32;1.80;;;;;;;9.53;57.77;99642.44;5071788;28;20036;-60
2022/04/20 03:17:59;;;;;;;3.60;1.65;;;;;;;9.53;58.19;99642.44;5081255;28;20107;-60
2022/04/20 03:20:25;;;;;;;3.40;2.25;;;;;;;9.51;58.10;99646.03;5091356;28;20024;-60
2022/04/20 03:22:50;;;;;;;3.15;1.80;;;;;;;9.54;58.07;99643.31;5092531;28;20024;-60
2022/04/20 03:25:16;;;;;;;3.42;2.03;;;;;;;9.50;58.38;99642.56;5092077;28;20106;-60
2022/04/20 03:27:41;;;;;;;3.40;1.92;;;;;;;9.43;60.52;99641.00;5092541;28;20035;-60
2022/04/20 03:30:07;;;;;;;3.22;2.13;;;;;;;9.38;61.60;99645.59;5092067;28;20498;-60
2022/04/20 03:32:34;;;;;;;4.13;1.83;;;;;;;9.33;60.99;99636.94;5092127;28;20031;-60
2022/04/20 03:35:00;;;;;;;4.25;2.13;;;;;;;9.27;61.23;99642.47;5091598;28;20391;-60
2022/04/20 03:37:26;;;;;;;2.92;1.77;;;;;;;9.24;61.05;99642.56;5092084;28;20024;-59
2022/04/20 03:39:51;;;;;;;3.85;2.40;;;;;;;9.26;61.54;99638.03;5092026;28;20523;-60
2022/04/20 03:42:17;;;;;;;3.05;2.00;;;;;;;9.28;61.19;99637.09;5091909;28;20027;-60
2022/04/20 03:44:42;;;;;;;5.53;2.28;;;;;;;9.19;62.59;99634.72;5091726;28;20103;-60
2022/04/20 03:47:08;;;;;;;5.25;2.40;;;;;;;9.18;62.62;99643.63;5090147;28;20028;-60
2022/04/20 03:49:34;;;;;;;3.55;2.22;;;;;;;9.12;62.17;99629.69;5071378;28;20024;-60
2022/04/20 03:52:02;;;;;;;3.53;2.15;;;;;;;9.17;62.87;99630.41;5071950;28;20051;-60
2022/04/20 03:54:28;;;;;;;6.50;3.00;;;;;;;9.17;62.98;99633.06;5071303;28;20119;-60
2022/04/20 03:57:10;;;;;;;5.57;2.70;;;;;;;9.24;62.52;99634.59;5071736;28;20182;-60
2022/04/20 03:59:37;;;;;;;3.97;2.15;;;;;;;9.22;61.75;99631.97;5072190;28;20480;-60
2022/04/20 04:02:04;;;;;;;4.03;2.20;;;;;;;9.23;61.98;99630.19;5059774;28;20487;-60
2022/04/20 04:04:30;;;;;;;4.53;2.67;;;;;;;9.22;62.07;99634.63;5051602;28;20214;-60
2022/04/20 04:06:55;;;;;;;4.55;2.63;;;;;;;9.24;62.56;99631.94;5051869;28;20115;-60
2022/04/20 04:09:21;;;;;;;3.22;2.15;;;;;;;9.27;62.22;99631.84;5051344;28;20028;-60
2022/04/20 04:11:46;;;;;;;3.30;2.67;;;;;;;9.26;62.52;99633.63;5032279;28;20063;-60
2022/04/20 04:14:12;;;;;;;4.07;2.95;;;;;;;9.26;62.72;99628.31;5050412;28;20075;-60
2022/04/20 04:16:37;;;;;;;4.85;2.67;;;;;;;9.19;62.80;99633.88;5051288;28;20488;-60
2022/04/20 04:19:04;;;;;;;5.20;2.15;;;;;;;9.21;62.52;99637.31;5069307;28;20039;-60
2022/04/20 04:21:31;;;;;;;4.40;2.50;;;;;;;9.19;61.50;99637.38;5080853;28;20055;-60
2022/04/20 04:23:57;;;;;;;7.90;2.78;;;;;;;9.21;61.84;99646.16;5083030;28;20028;-60
2022/04/20 04:26:23;;;;;;;3.40;2.30;;;;;;;9.20;61.30;99648.88;5091715;28;20435;-60
2022/04/20 04:28:48;;;;;;;3.25;2.20;;;;;;;9.17;62.34;99649.84;5091539;28;20103;-60
2022/04/20 04:31:13;;;;;;;4.72;2.55;;;;;;;9.16;62.45;99641.91;5091192;28;20024;-60
2022/04/20 04:33:39;;;;;;;4.32;2.45;;;;;;;9.04;62.79;99631.72;5091416;28;20028;-60
2022/04/20 04:36:05;;;;;;;3.85;2.50;;;;;;;9.14;62.63;99647.28;5091524;28;20028;-60
2022/04/20 04:38:30;;;;;;;4.07;2.67;;;;;;;9.02;62.65;99633.56;5091835;28;20024;-60
2022/04/20 04:40:56;;;;;;;5.78;2.92;;;;;;;9.13;63.49;99652.63;5090797;28;20107;-60
2022/04/20 04:43:22;;;;;;;5.72;3.13;;;;;;;9.14;63.62;99646.44;5091307;28;20019;-60
2022/04/20 04:48:37;;;;;;;;;;;;;;;9.18;64.17;99651.59;5091899;28;20266;-60
2022/04/20 04:51:06;;;;;;;6.25;2.95;;;;;;;9.11;63.75;99644.72;5091283;28;19983;-60
2022/04/20 04:53:31;;;;;;;5.32;2.85;;;;;;;9.20;63.78;99655.06;5091223;28;20032;-60
2022/04/20 04:55:57;;;;;;;5.30;3.17;;;;;;;9.31;63.89;99650.25;5091135;28;20102;-60
2022/04/20 04:58:22;;;;;;;5.43;3.17;;;;;;;9.39;63.08;99649.97;5090995;28;20024;-60
2022/04/20 05:00:48;;;;;;;7.72;3.40;;;;;;;9.31;63.16;99631.69;5091235;28;20537;-60
2022/04/20 05:03:17;;;;;;;13.73;4.43;;;;;;;9.52;63.04;99659.31;5090627;28;20032;-60
2022/04/20 05:05:51;;;;;;;7.07;3.67;;;;;;;9.59;62.75;99662.63;5072788;28;20430;-59
2022/04/20 05:08:17;;;;;;;4.95;3.30;;;;;;;9.60;62.66;99651.94;5071070;28;20051;-60
2022/04/20 05:10:42;;;;;;;7.82;3.55;;;;;;;9.84;63.33;99664.34;5069364;28;20063;-60
2022/04/20 05:13:08;;;;;;;23.98;4.40;;;;;;;9.94;63.54;99665.75;5072978;28;20032;-60
2022/04/20 05:15:34;;;;;;;9.25;3.33;;;;;;;10.11;60.48;99674.03;5087904;28;20078;-60
2022/04/20 05:18:00;;;;;;;8.45;3.55;;;;;;;10.38;60.16;99673.00;5094664;28;20024;-60
2022/04/20 05:20:26;;;;;;;12.93;4.07;;;;;;;10.93;59.43;99666.44;5094317;28;20032;-60
2022/04/20 05:22:51;;;;;;;7.78;3.45;;;;;;;11.17;59.26;99675.25;5094573;28;20023;-60
2022/04/20 05:25:17;;;;;;;6.07;3.28;;;;;;;11.11;56.26;99667.50;5094287;28;20069;-60
2022/04/20 05:27:43;;;;;;;7.43;3.95;;;;;;;11.20;57.03;99665.31;5094351;28;20019;-60
2022/04/20 05:30:11;;;;;;;6.35;3.13;;;;;;;11.51;56.08;99680.94;5094475;28;20510;-60
2022/04/20 05:32:36;;;;;;;4.85;2.85;;;;;;;11.56;54.09;99671.81;5094435;28;20391;-60
2022/04/20 05:35:03;;;;;;;8.75;3.15;;;;;;;11.65;55.08;99660.78;5094215;28;20024;-60
2022/04/20 05:42:57;;;;;;;;;;;;;;;13.12;49.22;99682.50;5095022;28;20446;-60
2022/04/20 05:45:23;;;;;;;4.80;2.55;;;;;;;13.53;48.28;99676.91;5093866;28;19908;-60
2022/04/20 05:47:52;;;;;;;4.80;2.92;;;;;;;13.38;47.73;99683.03;5094215;28;20020;-60
2022/04/20 05:50:18;;;;;;;4.20;2.70;;;;;;;13.17;48.80;99675.13;5093835;28;20055;-60
2022/04/20 05:52:43;;;;;;;5.13;3.00;;;;;;;13.22;49.40;99677.56;5093521;28;20155;-60
2022/04/20 05:55:09;;;;;;;5.43;2.78;;;;;;;13.70;49.02;99679.63;5084752;28;20036;-60
2022/04/20 05:57:35;;;;;;;11.00;6.13;;;;;;;14.93;46.37;99678.34;5073735;28;20024;-60
2022/04/20 06:00:00;;;;;;;8.57;4.78;;;;;;;15.63;44.25;99673.38;5073753;28;20028;-60
2022/04/20 06:02:26;;;;;;;7.85;3.60;;;;;;;15.82;44.73;99675.88;5073593;28;20415;-60
2022/04/20 06:04:52;;;;;;;5.75;2.78;;;;;;;15.51;44.34;99671.44;5073447;28;20046;-60
2022/04/20 06:07:18;;;;;;;6.80;3.75;;;;;;;15.42;44.61;99671.97;5073480;28;20499;-60
2022/04/20 06:09:43;;;;;;;6.20;3.15;;;;;;;15.19;44.93;99675.06;5073508;28;20032;-60
2022/04/20 06:12:09;;;;;;;4.97;2.65;;;;;;;15.28;45.38;99674.56;5073452;28;20028;-60
2022/04/20 06:14:35;;;;;;;5.18;2.67;;;;;;;15.55;44.57;99672.97;5073226;28;20140;-60
2022/04/20 06:17:00;;;;;;;4.57;2.60;;;;;;;15.47;45.77;99671.69;5074152;28;20024;-60
2022/04/20 06:19:25;;;;;;;7.18;2.75;;;;;;;15.33;45.03;99667.13;5093274;28;20464;-60
2022/04/20 06:21:51;;;;;;;5.80;2.97;;;;;;;15.52;44.26;99673.16;5093159;28;20060;-60
2022/04/20 06:24:16;;;;;;;5.18;2.30;;;;;;;15.92;44.75;99678.84;5092422;28;20027;-60
2022/04/20 06:26:42;;;;;;;4.95;2.63;;;;;;;15.93;44.52;99689.50;5091376;28;20036;-60
2022/04/20 06:29:07;;;;;;;4.32;3.10;;;;;;;16.14;44.20;99682.88;5073268;28;20028;-60
2022/04/20 06:31:33;;;;;;;4.70;2.75;;;;;;;16.16;43.42;99677.41;5075181;28;20157;-60
2022/04/20 06:33:59;;;;;;;3.30;2.05;;;;;;;16.48;43.50;99669.13;5073285;28;20103;-60
2022/04/20 06:36:26;;;;;;;6.82;2.20;;;;;;;16.29;42.44;99678.38;5074798;28;20066;-60
2022/04/20 06:38:51;;;;;;;3.88;2.00;;;;;;;16.08;43.84;99672.47;5072666;28;20020;-60
2022/04/20 06:41:17;;;;;;;3.65;2.25;;;;;;;15.91;44.49;99679.81;5079456;28;20403;-60
2022/04/20 06:43:43;;;;;;;5.15;2.63;;;;;;;16.10;44.50;99681.31;5093089;28;20035;-60
2022/04/20 06:46:08;;;;;;;3.70;2.17;;;;;;;16.29;43.61;99686.44;5092816;28;20024;-60
2022/04/20 06:48:34;;;;;;;2.92;1.95;;;;;;;16.48;43.79;99689.72;5092757;28;20032;-60
2022/04/20 06:51:00;;;;;;;4.10;2.50;;;;;;;16.59;42.11;99689.97;5092712;28;20030;-60
2022/04/20 06:58:54;;;;;;;11.85;2.40;;;;;;;16.91;42.39;99695.03;5092702;28;20066;-60
2022/04/20 07:01:20;;;;;;;2.50;1.73;;;;;;;16.56;40.22;99684.75;5092558;28;20102;-60
2022/04/20 07:03:45;;;;;;;4.93;2.35;;;;;;;16.29;41.29;99686.44;5092747;28;20024;-60
2022/04/20 07:06:11;;;;;;;3.72;2.17;;;;;;;16.62;43.00;99679.88;5092333;28;20034;-60
2022/04/20 07:08:37;;;;;;;4.97;2.33;;;;;;;16.97;40.21;99677.63;5092420;28;20024;-60
2022/04/20 07:11:03;;;;;;;6.60;2.67;;;;;;;17.00;40.57;99680.16;5092490;28;20023;-60
2022/04/20 07:13:29;;;;;;;4.00;2.30;;;;;;;17.32;40.84;99686.97;5090723;28;20028;-60
2022/04/20 07:15:55;;;;;;;5.28;2.40;;;;;;;17.27;39.59;99670.28;5074102;28;20454;-60
2022/04/20 07:18:20;;;;;;;5.47;2.40;;;;;;;17.27;40.90;99674.78;5090695;28;20387;-60
2022/04/20 07:20:46;;;;;;;3.83;2.25;;;;;;;17.62;39.74;99676.06;5092202;28;20109;-61
2022/04/20 07:23:12;;;;;;;4.15;2.28;;;;;;;17.23;40.10;99671.47;5092336;28;20494;-60
2022/04/20 07:25:38;;;;;;;5.10;2.28;;;;;;;17.37;41.28;99679.47;5092421;28;20072;-60
2022/04/20 07:28:07;;;;;;;4.05;2.53;;;;;;;17.53;40.08;99682.91;5091662;28;20710;-60
2022/04/20 07:30:34;;;;;;;4.75;2.53;;;;;;;17.65;40.55;99679.41;5091304;28;20023;-60
2022/04/20 07:33:01;;;;;;;5.97;2.50;;;;;;;17.61;39.91;99675.19;5092181;28;20020;-60
2022/04/20 07:35:28;;;;;;;5.88;2.60;;;;;;;17.43;38.76;99679.06;5091972;28;20031;-60
2022/04/20 07:37:54;;;;;;;4.40;2.65;;;;;;;17.52;39.73;99681.19;5091738;28;20471;-60
2022/04/20 07:40:19;;;;;;;5.85;2.28;;;;;;;17.87;40.50;99685.09;5092277;28;20081;-60
2022/04/20 07:42:45;;;;;;;6.75;2.20;;;;;;;18.12;37.92;99677.06;5092037;28;20419;-60
2022/04/20 07:45:11;;;;;;;6.95;2.90;;;;;;;18.58;39.45;99671.22;5091628;28;20425;-60
2022/04/20 07:47:36;;;;;;;3.85;2.55;;;;;;;19.18;37.64;99677.56;5082666;28;20024;-60
2022/04/20 07:50:23;;;;;;;4.82;2.67;;;;;;;19.59;38.07;99688.91;5091986;28;20040;-60
2022/04/20 07:52:51;;;;;;;4.20;2.15;;;;;;;19.16;37.23;99679.53;5092013;28;20039;-60
2022/04/20 07:55:20;;;;;;;4.65;2.00;;;;;;;19.06;37.83;99676.63;5091916;28;20462;-60
2022/04/20 07:57:45;;;;;;;4.65;2.00;;;;;;;18.98;38.14;99681.72;5091820;28;20172;-60
2022/04/20 08:00:14;;;;;;;3.42;2.35;;;;;;;19.25;37.30;99684.25;5092202;28;20221;-60
2022/04/20 08:02:43;;;;;;;4.43;2.20;;;;;;;19.59;37.23;99678.97;5091116;28;20058;-60
2022/04/20 08:05:10;;;;;;;4.43;2.55;;;;;;;19.75;36.36;99673.31;5091184;28;20331;-60
2022/04/20 08:07:36;;;;;;;3.97;2.30;;;;;;;19.74;36.56;99676.09;5091685;28;20028;-60
2022/04/20 08:10:04;;;;;;;3.00;1.88;;;;;;;19.68;36.18;99680.13;5091968;28;20035;-60
2022/04/20 08:12:42;;;;;;;4.35;2.22;;;;;;;20.32;37.31;99676.09;5091809;28;20031;-60
2022/04/20 08:15:08;;;;;;;4.13;1.98;;;;;;;20.25;35.17;99675.72;5091509;28;20027;-60
2022/04/20 08:17:35;;;;;;;4.97;2.55;;;;;;;19.91;35.07;99668.47;5091699;28;20164;-60
2022/04/20 08:20:01;;;;;;;5.20;2.78;;;;;;;19.90;35.98;99682.09;5091771;28;20016;-60
2022/04/20 08:22:27;;;;;;;3.63;1.98;;;;;;;19.98;35.31;99675.13;5091347;28;20066;-60
2022/04/20 08:24:53;;;;;;;3.78;1.95;;;;;;;20.65;34.27;99673.47;5091226;28;20024;-60
2022/04/20 08:27:20;;;;;;;3.38;2.00;;;;;;;21.27;35.05;99679.28;5090043;28;20028;-61
2022/04/20 08:29:47;;;;;;;4.50;1.70;;;;;;;21.46;33.25;99674.06;5090029;28;20032;-61
2022/04/20 08:32:14;;;;;;;3.08;1.88;;;;;;;21.29;32.59;99677.28;5081508;28;20052;-61
2022/04/20 08:34:42;;;;;;;3.05;2.10;;;;;;;20.58;32.93;99669.50;5085066;28;20031;-61
2022/04/20 08:37:08;;;;;;;3.33;1.85;;;;;;;20.52;32.27;99678.13;5088869;28;20335;-61
2022/04/20 08:39:33;;;;;;;5.03;2.10;;;;;;;20.56;32.59;99671.50;5091384;28;20103;-61
2022/04/20 08:42:00;;;;;;;2.90;1.77;;;;;;;20.77;32.23;99676.03;5090679;28;20153;-61
2022/04/20 08:44:27;;;;;;;4.45;1.58;;;;;;;20.59;32.01;99677.50;5089684;28;20031;-61
2022/04/20 08:46:54;;;;;;;3.20;1.70;;;;;;;20.89;31.22;99677.78;5090483;28;20035;-61
2022/04/20 08:49:20;;;;;;;2.50;1.63;;;;;;;21.08;33.41;99687.16;5073692;28;20136;-61
2022/04/20 08:54:33;;;;;;;6.47;2.10;;;;;;;21.70;32.13;99682.84;5090558;28;20058;-61
2022/04/20 08:57:18;;;;;;;3.95;1.50;;;;;;;22.10;32.21;99681.25;5092834;28;20055;-61
2022/04/20 08:59:48;;;;;;;3.65;1.80;;;;;;;21.68;31.35;99682.16;5093628;28;20055;-61
2022/04/20 09:02:15;;;;;;;5.28;1.50;;;;;;;21.90;31.76;99673.97;5093581;28;20028;-61
2022/04/20 09:04:41;;;;;;;3.28;1.73;;;;;;;22.11;30.36;99677.53;5093472;28;20020;-61
2022/04/20 09:07:12;;;;;;;5.03;1.83;;;;;;;22.44;31.96;99669.22;5093629;28;20081;-61
2022/04/20 09:09:38;;;;;;;3.70;1.70;;;;;;;22.36;32.01;99677.16;5076135;28;20448;-61
2022/04/20 09:12:26;;;;;;;5.10;1.75;;;;;;;22.31;29.59;99671.28;5087196;28;20102;-61
2022/04/20 09:14:52;;;;;;;2.15;1.45;;;;;;;21.71;30.22;99677.31;5094789;28;20024;-61
2022/04/20 09:17:20;;;;;;;5.47;1.60;;;;;;;21.83;31.44;99678.16;5094884;28;20025;-61
2022/04/20 09:19:51;;;;;;;3.53;1.77;;;;;;;21.81;30.46;99685.56;5094583;28;20027;-61
2022/04/20 09:22:27;;;;;;;3.70;1.77;;;;;;;21.97;31.40;99680.59;5093783;28;20093;-61
2022/04/20 09:25:14;;;;;;;4.70;1.90;;;;;;;21.78;30.44;99680.38;5093605;28;20031;-61
2022/04/20 09:27:41;;;;;;;3.58;1.75;;;;;;;21.40;31.28;99675.41;5093069;28;20023;-61
2022/04/20 09:30:15;;;;;;;2.55;1.73;;;;;;;21.30;29.81;99673.63;5092495;28;20221;-61
2022/04/20 09:32:45;;;;;;;3.85;1.70;;;;;;;21.01;31.49;99666.97;5092571;28;20119;-61
2022/04/20 09:35:18;;;;;;;3.78;1.80;;;;;;;21.00;33.46;99659.88;5092658;28;20119;-61
2022/04/20 09:37:44;;;;;;;3.55;1.70;;;;;;;21.54;30.54;99666.16;5092920;28;20487;-61
2022/04/20 09:40:12;;;;;;;3.15;1.70;;;;;;;22.03;33.09;99658.38;5078934;28;20020;-61
2022/04/20 09:43:06;;;;;;;6.15;1.80;;;;;;;22.41;30.50;99653.25;5073939;28;20514;-61
2022/04/20 09:45:33;;;;;;;5.93;2.08;;;;;;;22.94;29.11;99656.69;5072670;28;20104;-61
2022/04/20 09:51:10;;;;;;;4.88;1.48;;;;;;;23.86;29.14;99649.09;5093367;28;20038;-61
2022/04/20 09:53:36;;;;;;;4.68;1.88;;;;;;;23.74;28.41;99643.94;5093898;28;20372;-61
2022/04/20 09:56:22;;;;;;;5.10;1.83;;;;;;;23.43;26.90;99646.75;5094156;28;20036;-61
2022/04/20 09:58:59;;;;;;;4.78;1.58;;;;;;;23.22;29.74;99656.81;5092746;28;20387;-61
2022/04/20 10:01:36;;;;;;;3.83;2.28;;;;;;;22.69;29.27;99652.59;5094058;28;20063;-61
2022/04/20 10:04:04;;;;;;;5.72;2.35;;;;;;;22.48;29.86;99654.44;5093749;28;20024;-61
2022/04/20 10:06:30;;;;;;;3.05;1.77;;;;;;;22.67;29.14;99651.03;5094356;28;20024;-61
2022/04/20 10:08:56;;;;;;;2.45;1.40;;;;;;;22.45;29.24;99635.72;5093593;28;20073;-61
2022/04/20 10:11:22;;;;;;;3.80;1.60;;;;;;;22.84;29.41;99643.09;5093745;28;20027;-61
2022/04/20 10:16:05;;;;;;;3.13;1.50;;;;;;;23.17;31.78;99645.50;5092706;28;20387;-61
2022/04/20 10:16:39;;;;;;;2.90;1.60;;;;;;;22.63;28.62;99647.72;5092273;28;20102;-61
2022/04/20 10:19:07;;;;;;;2.95;1.48;;;;;;;22.52;29.45;99639.59;5093510;28;20028;-61
2022/04/20 10:21:43;;;;;;;4.50;2.03;;;;;;;22.52;28.79;99636.91;5092981;28;20056;-61
2022/04/20 10:24:14;;;;;;;4.45;1.85;;;;;;;23.20;30.29;99628.94;5093416;28;20043;-61
2022/04/20 10:26:40;;;;;;;2.97;1.55;;;;;;;23.32;29.84;99636.03;5093395;28;20031;-61
2022/04/20 10:29:26;;;;;;;4.03;1.80;;;;;;;23.62;28.91;99642.34;5093265;28;20028;-61
2022/04/20 10:32:06;;;;;;;3.20;2.08;;;;;;;23.63;29.08;99623.19;5093772;28;20499;-61
2022/04/20 10:34:31;;;;;;;3.05;1.73;;;;;;;23.55;28.16;99630.31;5093175;28;20710;-61
2022/04/20 10:36:59;;;;;;;2.75;1.50;;;;;;;23.33;27.67;99621.44;5077889;28;20110;-61
2022/04/20 10:39:26;;;;;;;3.40;1.92;;;;;;;23.26;27.76;99614.84;5055159;28;20162;-61
2022/04/20 10:42:30;;;;;;;5.38;2.22;;;;;;;23.08;29.42;99619.19;5070225;28;20044;-61
2022/04/20 10:44:55;;;;;;;5.38;1.63;;;;;;;23.02;28.39;99622.47;5056979;28;20028;-63
2022/04/20 10:47:25;;;;;;;4.53;1.67;;;;;;;23.37;27.71;99627.47;5070242;28;20032;-62
2022/04/20 10:49:53;;;;;;;3.97;2.17;;;;;;;23.33;28.30;99610.59;5072811;28;20546;-62
2022/04/20 10:52:29;;;;;;;5.53;2.25;;;;;;;23.67;27.44;99623.78;5072864;28;20468;-62
2022/04/20 10:54:56;;;;;;;5.28;1.60;;;;;;;23.15;28.69;99614.94;5072577;28;20042;-62
2022/04/20 10:57:36;;;;;;;6.20;2.22;;;;;;;23.24;28.13;99610.53;5072856;28;20445;-62
2022/04/20 11:00:17;;;;;;;3.83;2.13;;;;;;;23.03;28.47;99612.47;5072188;28;20203;-62
2022/04/20 11:03:03;;;;;;;3.38;1.95;;;;;;;23.08;30.42;99610.22;5072693;28;20036;-62
2022/04/20 11:05:28;;;;;;;5.68;2.15;;;;;;;22.24;28.88;99602.34;5072393;28;20028;-62
2022/04/20 11:08:01;;;;;;;3.75;1.80;;;;;;;22.16;29.33;99594.91;5072498;28;20032;-62
2022/04/20 11:10:28;;;;;;;2.95;1.55;;;;;;;22.93;28.46;99601.56;5055020;28;20128;-62
2022/04/20 11:19:10;;;;;;;4.72;2.08;;;;;;;23.60;28.68;99590.03;5070406;28;20081;-62
2022/04/20 11:21:37;;;;;;;3.45;1.73;;;;;;;23.38;27.13;99599.28;5082711;28;20127;-62
2022/04/20 11:24:08;;;;;;;4.28;1.60;;;;;;;23.12;27.09;99592.66;5092392;28;20391;-62
2022/04/20 11:26:40;;;;;;;2.78;1.55;;;;;;;23.43;27.69;99595.19;5092299;28;20024;-62
2022/04/20 11:29:17;;;;;;;3.70;1.80;;;;;;;23.87;29.26;99592.91;5092135;28;20020;-62
2022/04/20 11:31:48;;;;;;;3.95;1.33;;;;;;;23.92;26.76;99587.91;5092385;28;20074;-62
2022/04/20 11:34:17;;;;;;;4.18;2.03;;;;;;;23.60;27.03;99590.03;5092123;28;20024;-62
2022/04/20 11:36:44;;;;;;;2.80;1.20;;;;;;;23.41;27.57;99575.44;5092202;28;20368;-62
2022/04/20 11:39:11;;;;;;;3.13;1.73;;;;;;;23.71;27.34;99574.47;5074760;28;20024;-62
2022/04/20 11:41:37;;;;;;;4.22;1.65;;;;;;;23.50;27.14;99581.88;5071790;28;20028;-62
2022/04/20 11:44:03;;;;;;;4.18;1.92;;;;;;;23.61;26.91;99570.88;5071613;28;20029;-62
2022/04/20 11:46:31;;;;;;;4.15;1.50;;;;;;;23.54;27.31;99568.91;5073706;28;20028;-62
2022/04/20 11:48:58;;;;;;;2.92;1.40;;;;;;;23.54;26.65;99571.59;5091295;28;20498;-62
2022/04/20 11:51:27;;;;;;;2.97;1.40;;;;;;;23.68;26.53;99568.44;5091954;28;20028;-62
2022/04/20 11:53:53;;;;;;;3.80;2.00;;;;;;;23.34;25.93;99557.16;5091755;28;20035;-62
2022/04/20 11:56:39;;;;;;;3.08;1.30;;;;;;;23.87;27.49;99565.75;5091771;28;20491;-62
2022/04/20 11:59:07;;;;;;;6.03;1.77;;;;;;;24.22;27.01;99575.00;5091801;28;20031;-62
2022/04/20 12:01:34;;;;;;;4.95;2.42;;;;;;;24.22;28.19;99557.81;5091938;28;20024;-62
2022/04/20 12:04:04;;;;;;;4.22;1.70;;;;;;;24.49;27.02;99556.03;5091842;28;20095;-63
2022/04/20 12:06:30;;;;;;;3.85;1.70;;;;;;;24.93;27.19;99559.88;5091593;28;20488;-63